Challis, ID

7:48 AM MDT on September 23, 2014 (GMT -0600)
RAWS CHALLIS ID US | Change Station
CLOSE
Current Station
Personal Weather Station
Location: Challis, ID
Elevation: 5226 ft
Nearby Weather Stations

Elev 5226 ft 44.50 °N, 114.22 °W | Updated 45 minutes ago

Clear
Clear
49 °F
Feels Like 49 °F
N
1
Wind Variable Wind from West
Gusts 4.0 mph

Today
High -- | Low -- °F
--% Chance of Precip.
Yesterday
High -- | Low -- °F
Precip. -- in
7:25 AM 7:32 PM
Waning Crescent, 0% visible
Pressure 30.13 in
Visibility 6.0 miles
Clouds Clear
Windchill 49 °F
Dew Point 46 °F
Humidity 89%
Rainfall 0.02 in
Snow Depth 0 in , 1 in , 0 in
UV 0 out of 12
Pollen 8.40 out of 12
Air Quality Not available.
Flu Activity Not available.
METAR KSMN 231335Z AUTO 23004KT 6SM CLR 08/07 A3013 RMK AO1

More Conditions Fewer Conditions

Pressure 30.13 in
Visibility 6.0 miles
Clouds Clear
Windchill 49 °F
Dew Point 46 °F
Humidity 89%
Rainfall 0.02 in
Snow Depth 0 in , 1 in , 0 in
UV 0 out of 12
Pollen 8.40 out of 12
Air Quality Not available.
Flu Activity Not available.
METAR KSMN 231335Z AUTO 23004KT 6SM CLR 08/07 A3013 RMK AO1

More Conditions Fewer Conditions

10-Day Weather Forecast

Almanac

Astronomy

Sep. 23, 2014 Rise Set
Actual Time 7:25 AM MDT 7:32 PM MDT
Civil Twilight 6:56 AM MDT 8:01 PM MDT
Nautical Twilight 6:22 AM MDT 8:35 PM MDT
Astronomical Twilight 5:47 AM MDT 9:10 PM MDT
Moon 6:53 AM MDT 7:12 PM MDT
Length of Visible Light 13h 05m
Length of Day
12h 07m
Tomorrow will be 3m 4s shorter.
Waning Crescent, 0% of the Moon is Illuminated
Today
Waning Crescent
Sep 24
New
Oct 1
First Quarter
Oct 8
Full
Oct 15
Last Quarter

Today's Extremes

State Highs State Lows

Community

WunderPhotos

Upload Photos

1,755,669 photos uploaded!

WunderBlogs® & News

Nearby

Snow Depth

Station Depth Elevation
Swede Peak 0 in 7640 ft
Mud Flat 1 in 5730 ft
Hilts Creek 0 in 8000 ft
Mica Creek 1 in 4750 ft
Franklin Basin 2 in 8170 ft

Earthquake Activity

City Distance Mag. Time & Date
No recent earthquake activity has been reported nearby.
Minimum magnitude displayed is 2.5.

Coastal Water Temperatures

Place Temperature
No Stations Reporting

Nearby Weather Stations